Time;durP1;ratioP1;P1;durP2;ratioP2;P2;SDS_P1;SDS_P2;PMS_P1;PMS_P2;Temp;Humidity;BMP_temperature;BMP_pressure;BME280_temperature;BME280_humidity;BME280_pressure;Samples;Min_cycle;Max_cycle;Signal;HPM_P1;HPM_P2
2022/12/13 00:00:17;;;;;;;26.35;13.27;;;;;;;-143.48;78.33;118439.88;5072333;28;20025;-71
2022/12/13 00:02:44;;;;;;;28.52;12.73;;;;;;;-143.48;77.76;118439.88;5073079;28;20043;-70
2022/12/13 00:05:10;;;;;;;28.23;12.52;;;;;;;-143.48;77.84;118439.88;5072877;28;20059;-70
2022/12/13 00:07:35;;;;;;;27.50;11.98;;;;;;;-143.48;77.96;118439.88;5072811;28;20063;-70
2022/12/13 00:10:01;;;;;;;28.85;11.98;;;;;;;-143.48;78.06;118439.88;5076037;28;20028;-70
2022/12/13 00:12:26;;;;;;;29.38;12.73;;;;;;;-143.48;78.33;118439.88;5076725;28;20047;-70
2022/12/13 00:14:52;;;;;;;27.50;11.98;;;;;;;-143.48;78.06;118439.88;5075121;28;20384;-70
2022/12/13 00:17:17;;;;;;;34.40;12.18;;;;;;;-143.48;77.47;118439.88;5074527;28;20028;-70
2022/12/13 00:19:42;;;;;;;26.98;12.73;;;;;;;-143.48;77.72;118439.88;5069330;28;20369;-70
2022/12/13 00:22:08;;;;;;;29.80;13.57;;;;;;;-143.48;78.13;118439.88;5071623;28;20027;-70
2022/12/13 00:24:33;;;;;;;26.05;12.02;;;;;;;-143.48;77.56;118439.88;5074253;28;20383;-70
2022/12/13 00:26:58;;;;;;;26.20;12.30;;;;;;;-143.48;78.06;118439.88;5074332;28;20024;-71
2022/12/13 00:29:24;;;;;;;27.20;12.65;;;;;;;-143.48;78.44;118439.88;5074862;28;20067;-71
2022/12/13 00:31:49;;;;;;;31.30;12.77;;;;;;;-143.48;78.43;118439.88;5076280;28;20024;-70
2022/12/13 00:34:15;;;;;;;30.70;12.90;;;;;;;-143.48;78.22;118439.88;5076297;28;20023;-70
2022/12/13 00:36:40;;;;;;;32.72;12.43;;;;;;;-143.48;79.19;118439.88;5076230;28;20445;-70
2022/12/13 00:39:05;;;;;;;31.48;11.93;;;;;;;-143.48;78.55;118439.88;5058252;28;20023;-70
2022/12/13 00:41:34;;;;;;;28.73;12.05;;;;;;;-143.48;78.14;118439.88;5076145;28;20104;-70
2022/12/13 00:44:01;;;;;;;30.00;12.65;;;;;;;-143.48;78.38;118439.88;5077380;28;20036;-70
2022/12/13 00:46:27;;;;;;;33.20;12.70;;;;;;;-143.48;77.99;118439.88;5076129;28;20059;-70
2022/12/13 00:48:58;;;;;;;27.50;12.18;;;;;;;-143.48;78.15;118439.88;5076238;28;20029;-70
2022/12/13 00:51:26;;;;;;;27.05;11.73;;;;;;;-143.48;78.27;118439.88;5075933;28;20108;-70
2022/12/13 00:53:52;;;;;;;25.60;12.10;;;;;;;-143.48;78.35;118439.88;5058332;28;20029;-71
2022/12/13 00:56:20;;;;;;;27.23;12.32;;;;;;;-143.48;77.69;118439.88;5075812;28;20028;-70
2022/12/13 00:58:48;;;;;;;28.92;11.40;;;;;;;-143.48;78.17;118439.88;5075908;28;20052;-70
2022/12/13 01:01:14;;;;;;;29.80;11.77;;;;;;;-143.48;78.51;118439.88;5075736;28;20032;-70
2022/12/13 01:03:41;;;;;;;26.42;11.32;;;;;;;-143.48;78.00;118439.88;5075552;28;20427;-70
2022/12/13 01:06:10;;;;;;;30.13;12.45;;;;;;;-143.48;78.35;118439.88;5075796;28;20421;-71
2022/12/13 01:08:36;;;;;;;28.70;12.20;;;;;;;-143.48;78.78;118439.88;5075728;28;20368;-70
2022/12/13 01:11:03;;;;;;;29.63;11.57;;;;;;;-143.48;78.09;118439.88;5075950;28;20060;-78
2022/12/13 01:13:28;;;;;;;24.35;11.75;;;;;;;-143.48;77.59;118439.88;5075825;28;20395;-79
2022/12/13 01:15:53;;;;;;;30.67;11.85;;;;;;;-143.48;78.64;118439.88;5075732;28;20028;-80
2022/12/13 01:18:18;;;;;;;25.63;11.40;;;;;;;-143.48;78.40;118439.88;5075747;28;20024;-79
2022/12/13 01:21:09;;;;;;;24.15;11.68;;;;;;;-143.48;78.48;118439.88;5074668;28;20032;-79
2022/12/13 01:23:34;;;;;;;29.75;11.32;;;;;;;-143.48;78.51;118439.88;5075581;28;20021;-79
2022/12/13 01:26:04;;;;;;;26.30;11.90;;;;;;;-143.48;78.34;118439.88;5058480;28;20024;-79
2022/12/13 01:28:30;;;;;;;24.88;11.73;;;;;;;-143.48;77.96;118439.88;5074908;28;20039;-79
2022/12/13 01:30:58;;;;;;;28.88;12.52;;;;;;;-143.48;78.54;118439.88;5074931;28;20021;-80
2022/12/13 01:33:25;;;;;;;30.75;12.68;;;;;;;-143.48;78.71;118439.88;5075539;28;20422;-80
2022/12/13 01:35:50;;;;;;;28.70;12.25;;;;;;;-143.48;78.67;118439.88;5075307;28;20080;-79
2022/12/13 01:38:16;;;;;;;31.25;12.82;;;;;;;-143.48;78.65;118439.88;5075431;28;20047;-79
2022/12/13 01:40:46;;;;;;;31.63;12.65;;;;;;;-143.48;78.94;118439.88;5075454;28;20543;-79
2022/12/13 01:43:14;;;;;;;27.90;12.13;;;;;;;-143.48;78.14;118439.88;5075690;28;20513;-79
2022/12/13 01:45:40;;;;;;;32.30;12.52;;;;;;;-143.48;77.96;118439.88;5057046;28;20024;-79
2022/12/13 01:48:12;;;;;;;26.48;11.73;;;;;;;-143.48;78.10;118439.88;5057345;28;20391;-79
2022/12/13 01:50:41;;;;;;;29.23;12.80;;;;;;;-143.48;78.38;118439.88;5074930;28;20162;-79
2022/12/13 01:53:12;;;;;;;27.88;12.15;;;;;;;-143.48;78.34;118439.88;5074972;28;20032;-79
2022/12/13 01:55:42;;;;;;;32.78;12.20;;;;;;;-143.48;77.83;118439.88;5075077;28;20025;-80
2022/12/13 01:58:08;;;;;;;29.50;12.15;;;;;;;-143.48;77.86;118439.88;5074995;28;20047;-80
2022/12/13 02:00:34;;;;;;;25.77;11.95;;;;;;;-143.48;77.80;118439.88;5089448;28;20052;-81
2022/12/13 02:03:02;;;;;;;26.75;12.43;;;;;;;-143.48;77.85;118439.88;5061372;28;20472;-79
2022/12/13 02:05:35;;;;;;;25.85;11.30;;;;;;;-143.48;78.23;118439.88;5056729;28;20089;-79
2022/12/13 02:08:01;;;;;;;28.50;11.63;;;;;;;-143.48;77.42;118439.88;5075130;28;20050;-79
2022/12/13 02:10:28;;;;;;;26.63;11.88;;;;;;;-143.48;77.40;118439.88;5056734;28;20013;-79
2022/12/13 02:12:54;;;;;;;27.23;11.82;;;;;;;-143.48;78.04;118439.88;5074721;28;20506;-80
2022/12/13 02:15:20;;;;;;;28.10;11.80;;;;;;;-143.48;77.80;118439.88;5074738;28;20021;-79
2022/12/13 02:18:28;;;;;;;29.40;12.27;;;;;;;-143.48;77.59;118439.88;5069239;28;20495;-79
2022/12/13 02:21:04;;;;;;;28.20;12.48;;;;;;;-143.48;77.30;118439.88;5041857;28;20115;-80
2022/12/13 02:24:07;;;;;;;28.42;12.07;;;;;;;-143.48;77.23;118439.88;5075150;28;20063;-80
2022/12/13 02:26:58;;;;;;;29.15;12.13;;;;;;;-143.48;77.64;118439.88;5067182;28;20028;-79
2022/12/13 02:29:54;;;;;;;29.27;12.20;;;;;;;-143.48;77.93;118439.88;5064309;28;20047;-79
2022/12/13 02:32:28;;;;;;;28.13;12.20;;;;;;;-143.48;78.91;118439.88;5064285;28;20052;-79
2022/12/13 02:35:26;;;;;;;37.35;11.57;;;;;;;-143.48;78.22;118439.88;5055572;28;20059;-81
2022/12/13 02:37:54;;;;;;;31.60;12.20;;;;;;;-143.48;77.92;118439.88;5058245;28;20060;-79
2022/12/13 02:40:28;;;;;;;30.85;13.95;;;;;;;-143.48;77.78;118439.88;5093831;28;20016;-65
2022/12/13 02:43:19;;;;;;;32.78;14.27;;;;;;;-143.48;78.08;118439.88;5074586;28;20050;-64
2022/12/13 02:45:50;;;;;;;31.80;13.20;;;;;;;-143.48;78.56;118439.88;5056414;28;20488;-70
2022/12/13 02:48:26;;;;;;;31.17;12.52;;;;;;;-143.48;78.51;118439.88;5087713;28;20028;-71
2022/12/13 02:50:53;;;;;;;26.80;12.45;;;;;;;-143.48;78.82;118439.88;5090501;28;20036;-72
2022/12/13 02:53:20;;;;;;;30.50;13.25;;;;;;;-143.48;77.86;118439.88;5095704;28;20017;-72
2022/12/13 02:55:46;;;;;;;29.63;13.40;;;;;;;-143.48;78.09;118439.88;5095563;28;20130;-74
2022/12/13 02:58:14;;;;;;;28.00;13.38;;;;;;;-143.48;78.51;118439.88;5078138;28;20020;-72
2022/12/13 03:00:55;;;;;;;32.30;13.93;;;;;;;-143.48;78.84;118439.88;5094773;28;20039;-72
2022/12/13 03:03:31;;;;;;;31.83;12.65;;;;;;;-143.48;79.29;118439.88;5094925;28;20554;-74
2022/12/13 03:06:29;;;;;;;31.60;14.02;;;;;;;-143.48;78.77;118439.88;5087107;28;20491;-72
2022/12/13 03:09:19;;;;;;;30.77;13.43;;;;;;;-143.48;78.61;118439.88;5077106;28;20472;-72
2022/12/13 03:15:24;;;;;;;31.58;13.63;;;;;;;-143.48;77.41;118439.88;5075991;28;20063;-71
2022/12/13 03:18:00;;;;;;;32.42;14.13;;;;;;;-143.48;78.72;118439.88;5074134;28;20068;-71
2022/12/13 03:20:27;;;;;;;34.08;14.57;;;;;;;-143.48;78.00;118439.88;5074932;28;20025;-71
2022/12/13 03:22:54;;;;;;;35.28;15.73;;;;;;;-143.48;78.97;118439.88;5074912;28;20100;-71
2022/12/13 03:25:21;;;;;;;33.75;14.68;;;;;;;-143.48;79.58;118439.88;5074034;28;20025;-70
2022/12/13 03:27:46;;;;;;;36.83;15.48;;;;;;;-143.48;79.17;118439.88;5073636;28;20028;-70
2022/12/13 03:30:12;;;;;;;35.85;15.95;;;;;;;-143.48;78.55;118439.88;5055458;28;20036;-71
2022/12/13 03:32:37;;;;;;;39.70;15.82;;;;;;;-143.48;77.84;118439.88;5055532;28;20021;-69
2022/12/13 03:35:03;;;;;;;38.47;16.13;;;;;;;-143.48;78.14;118439.88;5073351;28;20056;-70
2022/12/13 03:37:28;;;;;;;37.42;16.55;;;;;;;-143.48;78.91;118439.88;5073328;28;20058;-70
2022/12/13 03:39:54;;;;;;;38.17;16.52;;;;;;;-143.48;78.00;118439.88;5073220;28;20020;-70
2022/12/13 03:42:19;;;;;;;36.38;16.15;;;;;;;-143.48;77.81;118439.88;5055325;28;20028;-70
2022/12/13 03:44:45;;;;;;;35.58;15.10;;;;;;;-143.48;78.28;118439.88;5076040;28;20032;-71
2022/12/13 03:47:10;;;;;;;35.83;16.67;;;;;;;-143.48;78.20;118439.88;5059499;28;20557;-71
2022/12/13 03:49:35;;;;;;;45.75;16.55;;;;;;;-143.48;78.61;118439.88;5077175;28;20430;-70
2022/12/13 03:52:01;;;;;;;35.65;15.98;;;;;;;-143.48;78.32;118439.88;5077181;28;20025;-71
2022/12/13 03:54:26;;;;;;;41.00;17.73;;;;;;;-143.48;78.32;118439.88;5077148;28;20484;-70
2022/12/13 03:56:51;;;;;;;35.92;16.70;;;;;;;-143.48;78.75;118439.88;5080368;28;20028;-69
2022/12/13 03:59:17;;;;;;;40.72;17.92;;;;;;;-143.48;77.85;118439.88;5077966;28;20056;-70
2022/12/13 04:01:42;;;;;;;38.10;17.15;;;;;;;-143.48;78.34;118439.88;5077094;28;20028;-70
2022/12/13 04:04:07;;;;;;;37.92;17.27;;;;;;;-143.48;79.04;118439.88;5076788;28;20060;-69
2022/12/13 04:06:33;;;;;;;40.50;17.63;;;;;;;-143.48;78.93;118439.88;5076860;28;20025;-69
2022/12/13 04:08:58;;;;;;;40.22;17.00;;;;;;;-143.48;79.24;118439.88;5077026;28;20016;-70
2022/12/13 04:14:07;;;;;;;41.17;17.38;;;;;;;-143.48;78.36;118439.88;5080919;28;20032;-70
2022/12/13 04:16:32;;;;;;;40.70;17.35;;;;;;;-143.48;78.67;118439.88;5060155;28;20017;-70
2022/12/13 04:18:58;;;;;;;44.28;17.83;;;;;;;-143.48;78.91;118439.88;5076541;28;20027;-70
2022/12/13 04:21:24;;;;;;;48.47;17.67;;;;;;;-143.48;79.59;118439.88;5058612;28;20392;-70
2022/12/13 04:23:49;;;;;;;40.33;17.15;;;;;;;-143.48;79.49;118439.88;5075500;28;20048;-70
2022/12/13 04:26:14;;;;;;;40.85;16.80;;;;;;;-143.48;79.45;118439.88;5076432;28;20056;-70
2022/12/13 04:28:39;;;;;;;46.58;18.60;;;;;;;-143.48;79.53;118439.88;5076515;28;20103;-70
2022/12/13 04:31:05;;;;;;;50.15;18.40;;;;;;;-143.48;79.43;118439.88;5076510;28;20035;-70
2022/12/13 04:33:31;;;;;;;38.30;17.23;;;;;;;-143.48;79.38;118439.88;5082684;28;20035;-71
2022/12/13 04:35:57;;;;;;;40.67;17.48;;;;;;;-143.48;79.35;118439.88;5067114;28;20076;-70
2022/12/13 04:38:22;;;;;;;42.03;17.50;;;;;;;-143.48;79.54;118439.88;5058568;28;20052;-70
2022/12/13 04:40:47;;;;;;;40.88;17.52;;;;;;;-143.48;79.61;118439.88;5076318;28;20032;-70
2022/12/13 04:43:13;;;;;;;37.83;16.52;;;;;;;-143.48;79.06;118439.88;5076173;28;20102;-70
2022/12/13 04:45:38;;;;;;;37.67;17.15;;;;;;;-143.48;78.77;118439.88;5076136;28;20033;-70
2022/12/13 04:48:04;;;;;;;37.65;16.40;;;;;;;-143.48;80.06;118439.88;5058130;28;20033;-70
2022/12/13 04:50:29;;;;;;;36.90;16.63;;;;;;;-143.48;79.98;118439.88;5076345;28;20064;-70
2022/12/13 04:52:54;;;;;;;41.42;17.38;;;;;;;-143.48;79.82;118439.88;5076818;28;20391;-71
2022/12/13 04:55:20;;;;;;;42.28;16.88;;;;;;;-143.48;79.88;118439.88;5058108;28;20016;-71
2022/12/13 04:57:45;;;;;;;41.80;17.35;;;;;;;-143.48;79.27;118439.88;5075965;28;20052;-70
2022/12/13 05:00:12;;;;;;;40.65;16.20;;;;;;;-143.48;79.42;118439.88;5075823;28;20036;-71
2022/12/13 05:02:38;;;;;;;37.30;16.60;;;;;;;-143.48;79.51;118439.88;5075792;28;20506;-71
2022/12/13 05:05:03;;;;;;;40.00;17.35;;;;;;;-143.48;78.27;118439.88;5075450;28;20029;-71
2022/12/13 05:07:28;;;;;;;35.17;16.02;;;;;;;-143.48;78.69;118439.88;5075777;28;20024;-70
2022/12/13 05:09:54;;;;;;;39.50;16.88;;;;;;;-143.48;78.46;118439.88;5058349;28;20467;-71
2022/12/13 05:12:19;;;;;;;43.95;17.90;;;;;;;-143.48;78.84;118439.88;5075816;28;20028;-70
2022/12/13 05:14:44;;;;;;;34.78;17.08;;;;;;;-143.48;79.33;118439.88;5075901;28;20025;-70
2022/12/13 05:17:10;;;;;;;36.78;16.38;;;;;;;-143.48;79.08;118439.88;5057800;28;20490;-71
2022/12/13 05:19:35;;;;;;;41.47;16.73;;;;;;;-143.48;78.87;118439.88;5074940;28;20031;-70
2022/12/13 05:22:00;;;;;;;37.03;16.63;;;;;;;-143.48;79.08;118439.88;5075075;28;20456;-70
2022/12/13 05:24:26;;;;;;;38.45;16.58;;;;;;;-143.48;79.75;118439.88;5076075;28;20078;-70
2022/12/13 05:26:51;;;;;;;38.05;16.60;;;;;;;-143.48;79.56;118439.88;5075477;28;20032;-69
2022/12/13 05:29:17;;;;;;;42.08;17.55;;;;;;;-143.48;79.57;118439.88;5073325;28;20020;-70
2022/12/13 05:31:42;;;;;;;35.20;16.20;;;;;;;-143.48;79.24;118439.88;5074166;28;20472;-70
2022/12/13 05:34:07;;;;;;;41.10;16.23;;;;;;;-143.48;79.06;118439.88;5075463;28;20468;-70
2022/12/13 05:36:32;;;;;;;36.85;16.42;;;;;;;-143.48;78.75;118439.88;5075066;28;20063;-71
2022/12/13 05:38:58;;;;;;;36.20;15.95;;;;;;;-143.48;78.02;118439.88;5075259;28;20033;-71
2022/12/13 05:41:26;;;;;;;33.45;15.85;;;;;;;-143.48;77.93;118439.88;5075172;28;20446;-69
2022/12/13 05:43:51;;;;;;;39.45;16.15;;;;;;;-143.48;78.00;118439.88;5057841;28;20103;-64
2022/12/13 05:46:17;;;;;;;38.90;16.67;;;;;;;-143.48;78.21;118439.88;5075352;28;20028;-64
2022/12/13 05:48:42;;;;;;;38.35;16.75;;;;;;;-143.48;78.10;118439.88;5075023;28;20517;-65
2022/12/13 05:51:08;;;;;;;41.35;16.45;;;;;;;-143.48;79.28;118439.88;5074747;28;20051;-65
2022/12/13 05:53:34;;;;;;;37.00;16.40;;;;;;;-143.48;79.73;118439.88;5075082;28;20122;-64
2022/12/13 05:56:00;;;;;;;38.35;15.98;;;;;;;-143.48;78.77;118439.88;5074838;28;20510;-65
2022/12/13 05:58:26;;;;;;;38.55;16.48;;;;;;;-143.48;79.11;118439.88;5058036;28;20032;-66
2022/12/13 06:00:51;;;;;;;37.05;16.48;;;;;;;-143.48;78.54;118439.88;5079442;28;20032;-66
2022/12/13 06:03:16;;;;;;;31.90;16.40;;;;;;;-143.48;78.58;118439.88;5080008;28;20039;-69
2022/12/13 06:05:43;;;;;;;43.50;17.52;;;;;;;-143.48;78.86;118439.88;5075174;28;20029;-67
2022/12/13 06:08:09;;;;;;;33.95;16.65;;;;;;;-143.48;78.78;118439.88;5056534;28;20475;-79
2022/12/13 06:10:34;;;;;;;36.83;16.52;;;;;;;-143.48;78.46;118439.88;5074717;28;20082;-79
2022/12/13 06:13:00;;;;;;;39.53;18.20;;;;;;;-143.48;78.35;118439.88;5074839;28;20035;-79
2022/12/13 06:15:25;;;;;;;39.47;18.17;;;;;;;-143.48;78.40;118439.88;5074684;28;20016;-80
2022/12/13 06:17:50;;;;;;;42.10;18.63;;;;;;;-143.48;78.24;118439.88;5056532;28;20023;-79
2022/12/13 06:20:16;;;;;;;39.60;18.67;;;;;;;-143.48;78.11;118439.88;5076240;28;20434;-80
2022/12/13 06:22:42;;;;;;;41.38;17.83;;;;;;;-143.48;77.45;118439.88;5075593;28;20078;-77
2022/12/13 06:25:07;;;;;;;43.13;17.23;;;;;;;-143.48;77.39;118439.88;5057494;28;20025;-79
2022/12/13 06:27:32;;;;;;;39.10;17.65;;;;;;;-143.48;77.17;118439.88;5075299;28;20024;-79
2022/12/13 06:29:58;;;;;;;39.00;17.25;;;;;;;-143.48;77.14;118439.88;5075159;28;20032;-80
2022/12/13 06:32:23;;;;;;;36.50;16.27;;;;;;;-143.48;77.77;118439.88;5085494;28;20028;-79
2022/12/13 06:34:48;;;;;;;43.88;17.15;;;;;;;-143.48;77.27;118439.88;5056759;28;20071;-78
2022/12/13 06:37:14;;;;;;;36.08;16.35;;;;;;;-143.48;77.47;118439.88;5056233;28;20017;-78
2022/12/13 06:39:39;;;;;;;41.13;17.55;;;;;;;-143.48;76.91;118439.88;5074357;28;20411;-79
2022/12/13 06:42:06;;;;;;;43.20;17.40;;;;;;;-143.48;76.94;118439.88;5077639;28;20028;-79
2022/12/13 06:44:33;;;;;;;34.38;16.92;;;;;;;-143.48;76.95;118439.88;5073729;28;20066;-67
2022/12/13 06:47:00;;;;;;;37.17;16.92;;;;;;;-143.48;76.86;118439.88;5074011;28;20470;-69
2022/12/13 06:49:25;;;;;;;38.33;16.35;;;;;;;-143.48;77.04;118439.88;5073733;28;20016;-69
2022/12/13 06:51:50;;;;;;;40.83;16.35;;;;;;;-143.48;76.74;118439.88;5073815;28;20107;-70
2022/12/13 06:54:15;;;;;;;36.85;16.30;;;;;;;-143.48;76.57;118439.88;5074059;28;20092;-70
2022/12/13 06:56:41;;;;;;;40.92;16.20;;;;;;;-143.48;76.68;118439.88;5073796;28;20035;-69
2022/12/13 06:59:06;;;;;;;39.78;17.52;;;;;;;-143.48;76.14;118439.88;5075081;28;20065;-69
2022/12/13 07:01:31;;;;;;;39.15;17.23;;;;;;;-143.48;76.29;118439.88;5073919;28;20480;-70
2022/12/13 07:03:57;;;;;;;38.50;17.05;;;;;;;-143.48;76.99;118439.88;5073507;28;20016;-69
2022/12/13 07:06:24;;;;;;;38.65;16.83;;;;;;;-143.48;77.09;118439.88;5073660;28;20051;-70
2022/12/13 07:08:52;;;;;;;45.10;18.48;;;;;;;-143.48;76.99;118439.88;5073748;28;20387;-72
2022/12/13 07:11:20;;;;;;;61.53;19.65;;;;;;;-143.48;76.91;118439.88;5073276;28;20021;-71
2022/12/13 07:13:46;;;;;;;66.97;20.83;;;;;;;-143.48;76.77;118439.88;5073351;28;20024;-70
2022/12/13 07:16:12;;;;;;;60.40;20.58;;;;;;;-143.48;77.15;118439.88;5073615;28;20369;-70
2022/12/13 07:18:37;;;;;;;75.75;20.13;;;;;;;-143.48;77.01;118439.88;5072754;28;20052;-70
2022/12/13 07:21:04;;;;;;;88.43;23.25;;;;;;;-143.48;76.46;118439.88;5073452;28;20031;-70
2022/12/13 07:23:29;;;;;;;72.05;21.63;;;;;;;-143.48;76.87;118439.88;5056134;28;20028;-79
2022/12/13 07:25:57;;;;;;;53.97;20.83;;;;;;;-143.48;76.82;118439.88;5077778;28;20009;-78
2022/12/13 07:28:25;;;;;;;49.13;20.77;;;;;;;-143.48;77.15;118439.88;5074876;28;20032;-78
2022/12/13 07:30:51;;;;;;;47.00;21.60;;;;;;;-143.48;76.62;118439.88;5073616;28;20485;-80
2022/12/13 07:33:16;;;;;;;44.88;20.23;;;;;;;-143.48;76.56;118439.88;5073242;28;20108;-78
2022/12/13 07:35:42;;;;;;;44.05;18.40;;;;;;;-143.48;76.93;118439.88;5073225;28;20075;-79
2022/12/13 07:38:09;;;;;;;43.55;17.95;;;;;;;-143.48;77.46;118439.88;5055301;28;20079;-78
2022/12/13 07:40:36;;;;;;;40.17;18.17;;;;;;;-143.48;76.58;118439.88;5073050;28;20107;-78
2022/12/13 07:43:01;;;;;;;40.15;16.85;;;;;;;-143.48;76.85;118439.88;5074091;28;20039;-78
2022/12/13 07:45:27;;;;;;;40.25;17.77;;;;;;;-143.48;76.46;118439.88;5078795;28;20021;-80
2022/12/13 07:47:52;;;;;;;38.60;17.95;;;;;;;-143.48;76.51;118439.88;5073813;28;20443;-81
2022/12/13 07:50:19;;;;;;;37.95;18.00;;;;;;;-143.48;75.91;118439.88;5073816;28;20061;-79
2022/12/13 07:52:49;;;;;;;40.28;17.25;;;;;;;-143.48;76.81;118439.88;5057256;28;20087;-80
2022/12/13 07:55:16;;;;;;;37.47;18.02;;;;;;;-143.48;77.14;118439.88;5073575;28;20021;-79
2022/12/13 07:57:42;;;;;;;41.92;18.45;;;;;;;-143.48;76.78;118439.88;5075171;28;20099;-79
2022/12/13 08:00:08;;;;;;;43.70;19.63;;;;;;;-143.48;76.16;118439.88;5056437;28;20123;-79
2022/12/13 08:02:34;;;;;;;43.17;20.02;;;;;;;-143.48;76.85;118439.88;5072353;28;20021;-77
2022/12/13 08:04:59;;;;;;;47.40;19.92;;;;;;;-143.48;76.09;118439.88;5071089;28;20048;-77
2022/12/13 08:07:24;;;;;;;47.08;19.00;;;;;;;-143.48;76.35;118439.88;5053243;28;20406;-79
2022/12/13 08:09:50;;;;;;;41.63;19.63;;;;;;;-143.48;76.06;118439.88;5071149;28;20102;-78
2022/12/13 08:12:17;;;;;;;41.05;19.15;;;;;;;-143.48;75.63;118439.88;5071444;28;20028;-78
2022/12/13 08:14:42;;;;;;;40.72;18.42;;;;;;;-143.48;75.49;118439.88;5070822;28;20024;-78
2022/12/13 08:17:07;;;;;;;43.35;18.02;;;;;;;-143.48;75.43;118439.88;5053861;28;20383;-78
2022/12/13 08:19:33;;;;;;;39.08;18.15;;;;;;;-143.48;75.54;118439.88;5071491;28;20099;-77
2022/12/13 08:21:58;;;;;;;44.63;18.20;;;;;;;-143.48;75.14;118439.88;5071888;28;20051;-79
2022/12/13 08:24:25;;;;;;;40.50;18.33;;;;;;;-143.48;75.68;118439.88;5071544;28;20024;-76
2022/12/13 08:26:51;;;;;;;39.58;17.23;;;;;;;-143.48;76.17;118439.88;5072040;28;20064;-79
2022/12/13 08:29:17;;;;;;;40.60;18.90;;;;;;;-143.48;76.52;118439.88;5073297;28;20063;-79
2022/12/13 08:31:43;;;;;;;37.78;19.25;;;;;;;-143.48;76.29;118439.88;5076701;28;20078;-79
2022/12/13 08:34:09;;;;;;;38.63;17.15;;;;;;;-143.48;76.20;118439.88;5058695;28;20074;-79
2022/12/13 08:36:34;;;;;;;35.58;16.77;;;;;;;-143.48;76.02;118439.88;5057742;28;20044;-79
2022/12/13 08:39:01;;;;;;;36.80;15.85;;;;;;;-143.48;75.94;118439.88;5076771;28;20033;-79
2022/12/13 08:41:27;;;;;;;35.65;14.90;;;;;;;-143.48;76.22;118439.88;5076344;28;20044;-79
2022/12/13 08:43:53;;;;;;;34.85;15.15;;;;;;;-143.48;76.36;118439.88;5058295;28;20074;-76
2022/12/13 08:46:18;;;;;;;35.58;16.10;;;;;;;-143.48;76.68;118439.88;5076453;28;20032;-68
2022/12/13 08:48:43;;;;;;;39.13;16.05;;;;;;;-143.48;75.91;118439.88;5076529;28;20036;-68
2022/12/13 08:51:11;;;;;;;35.50;15.63;;;;;;;-143.48;76.70;118439.88;5075987;28;20032;-69
2022/12/13 08:53:37;;;;;;;31.88;14.38;;;;;;;-143.48;77.12;118439.88;5058124;28;20028;-68
2022/12/13 08:56:06;;;;;;;33.63;15.38;;;;;;;-143.48;76.79;118439.88;5076065;28;20078;-69
2022/12/13 08:58:32;;;;;;;36.22;15.60;;;;;;;-143.48;76.96;118439.88;5075784;28;20028;-69
2022/12/13 09:00:58;;;;;;;35.35;14.98;;;;;;;-143.48;77.07;118439.88;5075933;28;20082;-68
2022/12/13 09:03:23;;;;;;;34.95;15.10;;;;;;;-143.48;77.06;118439.88;5057876;28;20058;-69
2022/12/13 09:05:49;;;;;;;31.90;15.07;;;;;;;-143.48;77.13;118439.88;5075930;28;20021;-69
2022/12/13 09:08:15;;;;;;;40.22;15.82;;;;;;;-143.48;77.52;118439.88;5057908;28;20036;-69
2022/12/13 09:10:40;;;;;;;35.95;16.20;;;;;;;-143.48;76.85;118439.88;5075853;28;20071;-69
2022/12/13 09:13:06;;;;;;;36.78;16.58;;;;;;;-143.48;77.41;118439.88;5075564;28;20047;-69
2022/12/13 09:15:32;;;;;;;35.88;15.43;;;;;;;-143.48;77.04;118439.88;5075566;28;20056;-69
2022/12/13 09:17:57;;;;;;;35.47;16.27;;;;;;;-143.48;77.18;118439.88;5075443;28;20099;-68
2022/12/13 09:20:23;;;;;;;39.25;16.75;;;;;;;-143.48;76.77;118439.88;5075414;28;20043;-70
2022/12/13 09:22:49;;;;;;;39.00;17.85;;;;;;;-143.48;76.43;118439.88;5075641;28;20332;-66
2022/12/13 09:25:15;;;;;;;38.92;17.60;;;;;;;-143.48;76.17;118439.88;5075307;28;20016;-66
2022/12/13 09:27:40;;;;;;;39.78;17.60;;;;;;;-143.48;75.55;118439.88;5057723;28;20123;-66
2022/12/13 09:30:07;;;;;;;37.13;16.20;;;;;;;-143.48;75.44;118439.88;5075310;28;20021;-66
2022/12/13 09:32:32;;;;;;;38.67;15.57;;;;;;;-143.48;74.91;118439.88;5075219;28;20142;-66
2022/12/13 09:34:58;;;;;;;38.00;16.77;;;;;;;-143.48;74.99;118439.88;5075109;28;20123;-66
2022/12/13 09:37:23;;;;;;;37.55;16.52;;;;;;;-143.48;75.39;118439.88;5075095;28;20060;-64
2022/12/13 09:39:49;;;;;;;38.90;16.95;;;;;;;-143.48;75.23;118439.88;5075429;28;20062;-65
2022/12/13 09:42:23;;;;;;;37.90;16.45;;;;;;;-143.48;75.38;118439.88;5056270;28;20028;-64
2022/12/13 09:44:52;;;;;;;36.17;16.95;;;;;;;-143.48;75.69;118439.88;5075003;28;20491;-65
2022/12/13 09:47:30;;;;;;;35.22;16.58;;;;;;;-143.48;75.76;118439.88;5074956;28;20434;-66
2022/12/13 09:49:57;;;;;;;37.22;16.33;;;;;;;-143.48;75.48;118439.88;5074647;28;20028;-64
2022/12/13 09:52:24;;;;;;;36.72;16.58;;;;;;;-143.48;74.25;118439.88;5074846;28;20028;-67
2022/12/13 09:54:55;;;;;;;35.80;16.52;;;;;;;-143.48;74.96;118439.88;5074712;28;20020;-66
2022/12/13 09:57:25;;;;;;;41.80;16.63;;;;;;;-143.48;74.97;118439.88;5075116;28;20472;-65
2022/12/13 10:12:55;;;;;;;30.92;19.50;;;;;;;-143.48;51.13;118439.88;5111978;27;20357;-37
2022/12/13 10:15:21;;;;;;;31.58;19.58;;;;;;;-143.48;51.42;118439.88;5111430;28;20036;-37
2022/12/13 10:17:47;;;;;;;33.22;19.30;;;;;;;-143.48;52.58;118439.88;5111388;28;20027;-37
2022/12/13 10:20:18;;;;;;;31.55;19.17;;;;;;;-143.48;53.36;118439.88;5111571;28;20102;-37
2022/12/13 10:22:44;;;;;;;29.88;19.02;;;;;;;-143.48;57.37;118439.88;5111365;28;20054;-37
2022/12/13 10:25:09;;;;;;;32.30;18.92;;;;;;;-143.48;55.01;118439.88;5110914;28;20404;-36
2022/12/13 10:27:39;;;;;;;31.45;19.75;;;;;;;-143.48;50.88;118439.88;5111221;28;20046;-37
2022/12/13 10:30:11;;;;;;;31.13;19.73;;;;;;;-143.48;49.79;118439.88;5111159;28;20019;-37
2022/12/13 10:32:49;;;;;;;35.80;20.83;;;;;;;-143.48;52.69;118439.88;5110879;28;20055;-36
2022/12/13 10:35:24;;;;;;;36.30;21.45;;;;;;;-143.48;55.22;118439.88;5111045;28;20420;-36
2022/12/13 10:37:49;;;;;;;34.35;20.15;;;;;;;-143.48;56.67;118439.88;5110920;28;20088;-36
2022/12/13 10:40:33;;;;;;;34.40;21.15;;;;;;;-143.48;51.59;118439.88;5110920;28;20024;-37
2022/12/13 10:43:15;;;;;;;33.47;20.60;;;;;;;-143.48;56.99;118439.88;5111138;28;20036;-37
2022/12/13 10:45:43;;;;;;;34.10;19.58;;;;;;;-143.48;62.34;118439.88;5110639;28;20023;-36
2022/12/13 10:48:20;;;;;;;37.22;20.73;;;;;;;-143.48;62.55;118439.88;5110766;28;20466;-37
2022/12/13 10:51:04;;;;;;;38.47;20.50;;;;;;;-143.48;64.25;118439.88;5110269;28;20048;-36
2022/12/13 10:53:32;;;;;;;35.97;19.75;;;;;;;-143.48;66.04;118439.88;5110364;28;20039;-36
2022/12/13 10:55:58;;;;;;;40.10;20.67;;;;;;;-143.48;65.80;118439.88;5110055;28;20099;-36
2022/12/13 10:58:34;;;;;;;39.75;19.58;;;;;;;-143.48;67.79;118439.88;5110122;28;20530;-37
2022/12/13 11:01:27;;;;;;;40.63;20.83;;;;;;;-143.48;67.49;118439.88;5107645;28;20024;-36
2022/12/13 11:03:57;;;;;;;42.65;21.38;;;;;;;-143.48;67.84;118439.88;5107082;28;20067;-37
2022/12/13 11:06:24;;;;;;;38.63;19.05;;;;;;;-143.48;68.39;118439.88;5105842;28;20130;-37
2022/12/13 11:08:49;;;;;;;42.10;20.17;;;;;;;-143.48;68.71;118439.88;5106584;28;20081;-36
2022/12/13 11:11:17;;;;;;;38.08;19.50;;;;;;;-143.48;68.88;118439.88;5107270;28;20044;-35
2022/12/13 11:14:00;;;;;;;42.15;19.42;;;;;;;-143.48;68.11;118439.88;5094647;28;20024;-36
2022/12/13 11:16:33;;;;;;;36.63;18.75;;;;;;;-143.48;68.64;118439.88;5096613;28;20054;-36